METAR Data
IDs: Format: Raw Decoded Include TAF

Data at: 0833 UTC 07 Dec 2021

K24J 070735Z AUTO 00000KT 2SM BR FEW003 SCT110 16/16 A3002 RMK A01
K24J 070715Z AUTO 00000KT 3SM BR FEW003 SCT110 16/17 A3003 RMK A01
K24J 070655Z AUTO 00000KT 1 3/4SM BR SCT003 16/17 A3003 RMK A01
K24J 070635Z AUTO 00000KT 3SM BR BKN003 17/17 A3004 RMK A01
K24J 070615Z AUTO 00000KT 4SM BR BKN003 17/17 A3004 RMK A01
K24J 070555Z AUTO 00000KT 5SM BR CLR 17/17 A3005 RMK A01
K24J 070535Z AUTO 00000KT 6SM BR CLR 17/17 A3005 RMK A01
K24J 070515Z AUTO 00000KT 8SM CLR 17/17 A3005 RMK A01
K24J 070455Z AUTO 00000KT 9SM FEW011 FEW027 FEW055 17/17 A3006 RMK A01
K24J 070435Z AUTO 00000KT 10SM SCT008 BKN012 OVC026 18/18 A3008 RMK A01
K24J 070415Z AUTO 29005KT 10SM SCT008 BKN028 OVC039 18/18 A3009 RMK A01
K24J 070355Z AUTO 00000KT 10SM SCT039 SCT047 BKN055 18/18 A3008 RMK A01
K24J 070335Z AUTO 00000KT 10SM FEW050 18/18 A3009 RMK A01
K24J 070315Z AUTO 00000KT 10SM SCT050 BKN055 17/17 A3008 RMK A01
K24J 070255Z AUTO 00000KT 8SM SCT050 BKN055 BKN110 17/17 A3009 RMK A01
K24J 070235Z AUTO 00000KT 10SM FEW110 17/17 A3009 RMK A01
K24J 070215Z AUTO 00000KT 10SM BKN050 BKN110 17/17 A3008 RMK A01
K24J 070155Z AUTO 00000KT 10SM SCT049 BKN110 17/17 A3008 RMK A01
K24J 070135Z AUTO 00000KT 10SM SCT110 18/17 A3008 RMK A01
K24J 070115Z AUTO 00000KT 10SM CLR 18/17 A3008 RMK A01
K24J 070055Z AUTO 00000KT 10SM CLR 19/17 A3009 RMK A01
K24J 070035Z AUTO 00000KT 10SM SCT110 19/17 A3008 RMK A01
K24J 070015Z AUTO 00000KT 10SM FEW090 20/17 A3007 RMK A01
K24J 062355Z AUTO 00000KT 10SM CLR 20/16 A3006 RMK A01
K24J 062335Z AUTO 00000KT 10SM CLR 20/16 A3005 RMK A01
K24J 062315Z AUTO 00000KT 10SM CLR 20/16 A3005 RMK A01
K24J 062255Z AUTO 00000KT 10SM CLR 21/16 A3004 RMK A01
K24J 062235Z AUTO 00000KT 10SM CLR 21/16 A3004 RMK A01
K24J 062215Z AUTO VRB04KT 10SM CLR 22/16 A3005 RMK A01
K24J 062155Z AUTO 00000KT 10SM CLR 22/16 A3005 RMK A01
K24J 062135Z AUTO 00000KT 10SM FEW037 23/16 A3005 RMK A01
K24J 062115Z AUTO 00000KT 10SM FEW038 23/15 A3006 RMK A01
K24J 062055Z AUTO VRB04KT 10SM CLR 24/15 A3005 RMK A01
K24J 062035Z AUTO VRB06G12KT 10SM CLR 25/14 A3004 RMK A01
K24J 062015Z AUTO 21007KT 190V260 10SM FEW044 25/14 A3005 RMK A01
K24J 061955Z AUTO VRB04G10KT 10SM CLR 25/14 A3005 RMK A01
K24J 061935Z AUTO 25009KT 210V270 10SM CLR 26/14 A3005 RMK A01
K24J 061915Z AUTO 25007G13KT 10SM CLR 25/14 A3005 RMK A01
K24J 061855Z AUTO 25009KT 10SM FEW044 25/14 A3006 RMK A01
K24J 061835Z AUTO 22008KT 10SM CLR 25/14 A3006 RMK A01
K24J 061815Z AUTO 21006KT 10SM CLR 25/13 A3006 RMK A01
K24J 061755Z AUTO 22008KT 200V260 10SM CLR 25/13 A3007 RMK A01
K24J 061735Z AUTO 23007G13KT 200V270 10SM CLR 25/14 A3008 RMK A01
K24J 061715Z AUTO 19007KT 10SM CLR 24/14 A3008 RMK A01
K24J 061655Z AUTO 21008KT 10SM CLR 24/15 A3009 RMK A01
K24J 061635Z AUTO 19007G12KT 150V230 10SM CLR 24/16 A3010 RMK A01
K24J 061615Z AUTO 19007KT 10SM CLR 23/16 A3012 RMK A01
K24J 061555Z AUTO 00000KT 10SM CLR 22/17 A3013 RMK A01
K24J 061535Z AUTO 00000KT 10SM CLR 21/17 A3014 RMK A01
K24J 061515Z AUTO 18004KT 10SM CLR 20/18 A3014 RMK A01
K24J 061455Z AUTO 00000KT 10SM CLR 18/18 A3014 RMK A01
K24J 061435Z AUTO 00000KT 10SM CLR 16/16 A3013 RMK A01
K24J 061415Z AUTO 00000KT 10SM CLR 15/15 A3013 RMK A01
K24J 061355Z AUTO 00000KT 10SM CLR 14/14 A3012 RMK A01
K24J 061335Z AUTO 00000KT 6SM BR CLR 12/12 A3012 RMK A01
K24J 061315Z AUTO 00000KT 3SM BR CLR 10/10 A3011 RMK A01
K24J 061255Z AUTO 00000KT 2 1/2SM BR CLR 09/09 A3012 RMK A01
K24J 061235Z AUTO 00000KT 2 1/2SM BR CLR 08/08 A3012 RMK A01
K24J 061215Z AUTO 00000KT 2 1/2SM BR FEW041 08/08 A3012 RMK A01
K24J 061155Z AUTO 00000KT 3SM BR OVC041 08/08 A3012 RMK A01
K24J 061135Z AUTO 00000KT 2 1/2SM BR SCT002 OVC041 08/08 A3012 RMK A01
K24J 061115Z AUTO 00000KT 2SM BR BKN002 OVC042 08/08 A3011 RMK A01
K24J 061055Z AUTO 00000KT 1/4SM FG OVC002 08/08 A3011 RMK A01
K24J 061035Z AUTO 00000KT M1/4SM FG OVC002 08/08 A3011 RMK A01
K24J 061015Z AUTO 00000KT M1/4SM FG OVC001 08/08 A3011 RMK A01
K24J 060955Z AUTO 00000KT M1/4SM FG OVC001 08/08 A3010 RMK A01
K24J 060935Z AUTO 00000KT 1/4SM FG OVC001 08/08 A3011 RMK A01
K24J 060915Z AUTO 00000KT M1/4SM FG OVC002 08/08 A3011 RMK A01
K24J 060855Z AUTO 00000KT M1/4SM FG OVC001 08/08 A3011 RMK A01
K24J 060835Z AUTO 00000KT 1/4SM FG OVC002 08/09 A3011 RMK A01
K24J 060815Z AUTO 00000KT M1/4SM FG OVC001 09/09 A3011 RMK A01
K24J 060755Z AUTO 00000KT 1SM BR OVC001 09/09 A3012 RMK A01
K24J 060735Z AUTO 00000KT 1/2SM BR OVC001 09/09 A3012 RMK A01
K24J 060715Z AUTO 00000KT 2 1/2SM BR FEW002 BKN042 09/09 A3012 RMK A01 VIS 1 3/4V3
K24J 060655Z AUTO 00000KT 1/2SM BR OVC041 09/09 A3012 RMK A01
K24J 060635Z AUTO 00000KT 3/4SM BR OVC041 10/10 A3012 RMK A01
K24J 060615Z AUTO 00000KT 1 1/4SM BR OVC042 10/10 A3012 RMK A01
K24J 060555Z AUTO 00000KT 1 1/4SM BR OVC042 10/10 A3013 RMK A01 VIS 3/4V2 1/2
K24J 060535Z AUTO 00000KT 1/4SM FG OVC041 10/10 A3013 RMK A01
K24J 060515Z AUTO 00000KT 1/4SM FG OVC041 10/10 A3014 RMK A01 VIS M1/4V5
K24J 060455Z AUTO 00000KT 1/2SM FG BKN036 OVC042 10/10 A3015 RMK A01
K24J 060435Z AUTO 00000KT 2SM BR OVC042 10/10 A3015 RMK A01
K24J 060415Z AUTO 00000KT 1/4SM FG OVC041 10/10 A3016 RMK A01
K24J 060355Z AUTO 00000KT 1/2SM BR BKN037 OVC043 10/10 A3016 RMK A01
K24J 060335Z AUTO 00000KT 1/4SM FG SCT036 OVC043 11/11 A3016 RMK A01
K24J 060315Z AUTO 00000KT 1/2SM BR OVC044 11/11 A3016 RMK A01
K24J 060255Z AUTO 00000KT M1/4SM FG OVC044 12/12 A3017 RMK A01
K24J 060235Z AUTO 00000KT 1/4SM FG BKN038 OVC044 11/11 A3016 RMK A01
K24J 060215Z AUTO 00000KT 1/4SM FG BKN038 OVC045 12/12 A3016 RMK A01
K24J 060155Z AUTO 00000KT M1/4SM FG VV000 12/12 A3015 RMK A01 VIS M1/4V5
K24J 060135Z AUTO 00000KT M1/4SM FG VV000 12/12 A3015 RMK A01
K24J 060115Z AUTO 00000KT M1/4SM FG VV000 12/12 A3014 RMK A01
K24J 060055Z AUTO 00000KT M1/4SM FG VV000 13/13 A3014 RMK A01
K24J 060035Z AUTO 00000KT M1/4SM FG VV000 14/14 A3013 RMK A01
K24J 060015Z AUTO 00000KT 1/2SM FG SCT024 BKN037 14/14 A3013 RMK A01
K24J 052355Z AUTO 00000KT 1 1/2SM BR CLR 14/14 A3013 RMK A01 VIS 1/2V4
K24J 052335Z AUTO 00000KT 7SM CLR 15/15 A3013 RMK A01
K24J 052315Z AUTO 00000KT 10SM CLR 16/16 A3012 RMK A01
K24J 052235Z AUTO 00000KT 10SM CLR 17/15 A3012 RMK A01
K24J 052215Z AUTO 00000KT 10SM CLR 19/15 A3011 RMK A01
K24J 052155Z AUTO 00000KT 10SM CLR 21/14 A3011 RMK A01
K24J 052135Z AUTO 00000KT 10SM CLR 22/14 A3011 RMK A01
K24J 052115Z AUTO 00000KT 10SM CLR 22/14 A3011 RMK A01
K24J 052055Z AUTO 00000KT 10SM CLR 22/14 A3011 RMK A01
K24J 052035Z AUTO 00000KT 10SM CLR 22/14 A3011 RMK A01